createdAt,value
2019-06-20T00:00:50.597Z,4.93
2019-06-20T00:05:58.272Z,4.63
2019-06-20T00:08:32.688Z,4.83
2019-06-20T00:11:07.306Z,4.37
2019-06-20T00:13:41.694Z,4.70
2019-06-20T00:16:15.941Z,4.87
2019-06-20T00:21:24.242Z,5.07
2019-06-20T00:23:58.678Z,4.57
2019-06-20T00:26:33.090Z,4.47
2019-06-20T00:29:07.651Z,4.63
2019-06-20T00:31:41.971Z,4.43
2019-06-20T00:34:16.275Z,4.20
2019-06-20T00:36:51.460Z,4.33
2019-06-20T00:39:25.947Z,3.80
2019-06-20T00:42:00.267Z,4.35
2019-06-20T00:44:34.703Z,4.53
2019-06-20T00:49:41.932Z,4.10
2019-06-20T00:52:16.295Z,4.00
2019-06-20T00:54:50.732Z,3.63
2019-06-20T00:59:57.938Z,4.97
2019-06-20T01:02:32.649Z,4.30
2019-06-20T01:07:20.302Z,4.03
2019-06-20T01:09:54.943Z,4.03
2019-06-20T01:12:29.311Z,4.07
2019-06-20T01:15:04.688Z,4.00
2019-06-20T01:17:40.273Z,3.97
2019-06-20T01:20:16.135Z,4.10
2019-06-20T01:22:50.712Z,4.80
2019-06-20T01:28:17.788Z,3.98
2019-06-20T01:33:24.939Z,4.20
2019-06-20T01:35:59.278Z,3.93
2019-06-20T01:40:42.886Z,3.80
2019-06-20T01:43:17.272Z,4.40
2019-06-20T01:45:51.676Z,4.67
2019-06-20T01:48:25.939Z,4.20
2019-06-20T01:51:00.346Z,3.80
2019-06-20T01:53:34.946Z,4.13
2019-06-20T01:56:09.648Z,3.50
2019-06-20T01:58:44.114Z,4.22
2019-06-20T02:01:18.703Z,4.08
2019-06-20T02:03:53.267Z,4.10
2019-06-20T02:06:27.615Z,3.87
2019-06-20T02:09:02.245Z,4.03
2019-06-20T02:11:37.152Z,3.70
2019-06-20T02:14:11.688Z,3.90
2019-06-20T02:16:46.241Z,3.90
2019-06-20T02:19:20.697Z,3.90
2019-06-20T02:24:27.951Z,3.80
2019-06-20T02:27:02.344Z,3.67
2019-06-20T02:29:36.655Z,4.12
2019-06-20T02:32:11.105Z,3.37
2019-06-20T02:34:45.300Z,4.10
2019-06-20T02:37:19.861Z,3.20
2019-06-20T02:39:54.268Z,4.20
2019-06-20T02:42:28.706Z,3.70
2019-06-20T02:45:03.074Z,3.60
2019-06-20T02:47:37.697Z,3.57
2019-06-20T02:52:45.756Z,4.17
2019-06-20T02:55:20.279Z,3.80
2019-06-20T02:57:55.871Z,3.83
2019-06-20T03:03:20.104Z,4.17
2019-06-20T03:05:54.673Z,4.70
2019-06-20T03:08:29.685Z,4.08
2019-06-20T03:11:03.998Z,4.75
2019-06-20T03:13:38.337Z,5.10
2019-06-20T03:16:12.773Z,4.60
2019-06-20T03:21:20.106Z,4.60
2019-06-20T03:23:54.663Z,4.50
2019-06-20T03:26:28.939Z,4.50
2019-06-20T03:29:03.277Z,4.57
2019-06-20T03:31:37.871Z,5.00
2019-06-20T03:34:12.296Z,4.40
2019-06-20T03:36:46.708Z,4.50
2019-06-20T03:39:21.113Z,4.50
2019-06-20T03:41:55.674Z,5.00
2019-06-20T03:44:30.119Z,4.70
2019-06-20T03:47:04.328Z,4.83
2019-06-20T03:49:38.678Z,4.77
2019-06-20T03:52:12.944Z,5.80
2019-06-20T03:54:47.659Z,6.57
2019-06-20T03:59:55.308Z,6.30
2019-06-20T04:02:29.706Z,6.87
2019-06-20T04:05:03.959Z,7.80
2019-06-20T04:07:38.277Z,7.30
2019-06-20T04:10:13.278Z,7.63
2019-06-20T04:12:47.688Z,7.57
2019-06-20T04:15:22.143Z,7.03
2019-06-20T04:17:56.574Z,7.83
2019-06-20T04:20:31.073Z,5.93
2019-06-20T04:23:05.619Z,6.00
2019-06-20T04:25:40.069Z,6.30
2019-06-20T04:28:14.356Z,5.27
2019-06-20T04:30:48.867Z,5.50
2019-06-20T04:35:55.950Z,6.77
2019-06-20T04:38:30.285Z,6.12
2019-06-20T04:41:04.745Z,5.70
2019-06-20T04:43:38.960Z,6.30
2019-06-20T04:46:27.948Z,6.30
2019-06-20T04:51:35.508Z,6.40
2019-06-20T04:54:10.264Z,6.90
2019-06-20T04:56:44.668Z,7.37
2019-06-20T04:59:18.952Z,6.50
2019-06-20T05:01:53.251Z,7.08
2019-06-20T05:04:27.940Z,6.30
2019-06-20T05:07:13.275Z,6.10
2019-06-20T05:09:47.703Z,6.75
2019-06-20T05:14:55.282Z,5.42
2019-06-20T05:17:29.874Z,4.80
2019-06-20T05:20:04.256Z,4.03
2019-06-20T05:22:38.719Z,4.17
2019-06-20T05:25:13.364Z,4.20
2019-06-20T05:27:47.711Z,3.70
2019-06-20T05:35:28.710Z,2.90
2019-06-20T05:40:38.280Z,3.50
2019-06-20T05:43:12.963Z,3.13
2019-06-20T05:45:48.783Z,3.42
2019-06-20T05:48:25.413Z,3.10
2019-06-20T05:50:59.958Z,3.65
2019-06-20T05:53:34.282Z,3.10
2019-06-20T05:56:08.828Z,3.70
2019-06-20T05:58:43.303Z,3.47
2019-06-20T06:01:17.944Z,3.00
2019-06-20T06:03:52.305Z,3.10
2019-06-20T06:06:26.956Z,3.20
2019-06-20T06:14:07.643Z,3.12
2019-06-20T06:16:44.228Z,3.03
2019-06-20T06:21:51.349Z,3.55
2019-06-20T06:24:26.228Z,3.60
2019-06-20T06:27:00.919Z,4.95
2019-06-20T06:29:35.324Z,4.67
2019-06-20T06:32:09.893Z,4.73
2019-06-20T06:34:44.334Z,3.43
2019-06-20T06:37:19.272Z,4.20
2019-06-20T06:39:53.772Z,4.60
2019-06-20T06:42:28.391Z,4.00
2019-06-20T06:45:02.939Z,4.30
2019-06-20T06:47:37.354Z,3.80
2019-06-20T06:50:13.898Z,3.80
2019-06-20T06:52:49.340Z,3.60
2019-06-20T06:55:27.449Z,3.57
2019-06-20T07:00:34.735Z,5.20
2019-06-20T07:05:45.214Z,4.03
2019-06-20T07:08:19.740Z,4.83
2019-06-20T07:13:28.302Z,3.80
2019-06-20T07:16:03.186Z,3.97
2019-06-20T07:18:37.879Z,3.40
2019-06-20T07:21:12.662Z,3.50
2019-06-20T07:23:47.328Z,2.92
2019-06-20T07:26:21.797Z,6.17
2019-06-20T07:28:56.363Z,3.33
2019-06-20T07:31:31.285Z,2.98
2019-06-20T07:34:06.299Z,3.43
2019-06-20T07:36:41.299Z,3.07
2019-06-20T07:39:16.075Z,2.80
2019-06-20T07:41:50.692Z,3.97
2019-06-20T07:46:57.913Z,3.30
2019-06-20T07:49:32.336Z,3.70
2019-06-20T07:52:06.858Z,3.15
2019-06-20T07:54:41.275Z,3.02
2019-06-20T07:57:15.868Z,2.93
2019-06-20T07:59:50.250Z,4.67
2019-06-20T08:02:25.648Z,3.17
2019-06-20T08:05:00.094Z,2.67
2019-06-20T08:07:34.560Z,3.07
2019-06-20T08:10:10.728Z,3.33
2019-06-20T08:15:20.413Z,3.00
2019-06-20T08:17:54.973Z,3.50
2019-06-20T08:20:29.685Z,7.75
2019-06-20T08:23:03.949Z,2.95
2019-06-20T08:25:38.325Z,3.33
2019-06-20T08:28:12.701Z,3.10
2019-06-20T08:33:19.954Z,2.75
2019-06-20T08:35:54.315Z,3.17
2019-06-20T08:38:28.783Z,2.83
2019-06-20T08:43:36.645Z,2.50
2019-06-20T08:46:10.944Z,3.20
2019-06-20T08:48:45.120Z,2.60
2019-06-20T08:51:20.680Z,2.40
2019-06-20T08:53:56.319Z,2.80
2019-06-20T08:58:50.342Z,2.65
2019-06-20T09:01:25.205Z,2.80
2019-06-20T09:04:00.097Z,2.87
2019-06-20T09:06:34.697Z,2.80
2019-06-20T09:11:43.341Z,2.83
2019-06-20T09:14:17.880Z,2.93
2019-06-20T09:16:52.290Z,3.55
2019-06-20T09:22:04.976Z,3.00
2019-06-20T09:24:39.645Z,3.20
2019-06-20T09:27:13.956Z,2.77
2019-06-20T09:29:48.272Z,2.72
2019-06-20T09:32:22.752Z,3.07
2019-06-20T09:34:56.944Z,2.40
2019-06-20T09:37:31.290Z,2.80
2019-06-20T09:40:06.182Z,2.67
2019-06-20T09:42:40.958Z,2.30
2019-06-20T09:45:15.903Z,2.10
2019-06-20T09:47:50.967Z,2.60
2019-06-20T09:50:26.663Z,2.47
2019-06-20T09:55:34.921Z,2.50
2019-06-20T09:58:09.281Z,2.70
2019-06-20T10:00:43.875Z,2.90
2019-06-20T10:03:18.272Z,2.43
2019-06-20T10:05:52.704Z,2.40
2019-06-20T10:10:59.957Z,2.70
2019-06-20T10:13:34.315Z,2.50
2019-06-20T10:16:08.724Z,2.65
2019-06-20T10:21:15.949Z,2.33
2019-06-20T10:23:50.272Z,2.50
2019-06-20T10:26:24.890Z,2.37
2019-06-20T10:28:59.127Z,2.47
2019-06-20T10:31:33.671Z,2.27
2019-06-20T10:34:08.073Z,2.50
2019-06-20T10:36:43.968Z,2.37
2019-06-20T10:39:18.781Z,2.60
2019-06-20T10:44:26.745Z,2.40
2019-06-20T10:49:33.948Z,2.60
2019-06-20T10:52:08.718Z,2.10
2019-06-20T10:57:18.665Z,2.10
2019-06-20T10:59:53.078Z,2.30
2019-06-20T11:02:27.675Z,2.27
2019-06-20T11:07:35.075Z,2.10
2019-06-20T11:10:11.275Z,2.00
2019-06-20T11:12:53.039Z,2.72
2019-06-20T11:15:23.610Z,2.35
2019-06-20T11:20:31.591Z,2.47
2019-06-20T11:23:05.940Z,2.90
2019-06-20T11:25:41.627Z,2.17
2019-06-20T11:28:16.266Z,1.90
2019-06-20T11:30:58.169Z,2.03
2019-06-20T11:33:26.922Z,2.22
2019-06-20T11:36:01.278Z,1.93
2019-06-20T11:38:35.951Z,1.90
2019-06-20T11:41:10.271Z,2.23
2019-06-20T11:43:45.109Z,2.20
2019-06-20T11:46:19.674Z,2.30
2019-06-20T11:51:26.951Z,2.00
2019-06-20T11:54:01.289Z,1.82
2019-06-20T11:56:35.853Z,1.60
2019-06-20T11:59:10.254Z,1.70
2019-06-20T12:01:44.941Z,1.70
2019-06-20T12:04:19.280Z,1.80
2019-06-20T12:06:53.711Z,1.60
2019-06-20T12:12:00.944Z,1.87
2019-06-20T12:14:35.276Z,1.65
2019-06-20T12:17:09.696Z,2.07
2019-06-20T12:19:44.578Z,1.70
2019-06-20T12:22:18.948Z,1.67
2019-06-20T12:27:27.890Z,1.67
2019-06-20T12:30:02.322Z,1.70
2019-06-20T12:32:36.942Z,1.70
2019-06-20T12:35:12.280Z,1.52
2019-06-20T12:37:47.914Z,1.60
2019-06-20T12:40:24.708Z,1.60
2019-06-20T12:42:58.929Z,1.70
2019-06-20T12:45:33.297Z,1.82
2019-06-20T12:48:07.711Z,1.40
2019-06-20T12:53:16.871Z,1.72
2019-06-20T12:55:51.345Z,1.80
2019-06-20T12:58:26.761Z,1.90
2019-06-20T13:01:01.335Z,1.67
2019-06-20T13:03:35.882Z,1.50
2019-06-20T13:06:10.275Z,1.80
2019-06-20T13:08:45.245Z,1.40
2019-06-20T13:13:11.945Z,1.60
2019-06-20T13:15:46.965Z,1.77
2019-06-20T13:18:21.332Z,1.77
2019-06-20T13:20:55.781Z,1.60
2019-06-20T13:26:03.033Z,1.65
2019-06-20T13:28:54.152Z,1.33
2019-06-20T13:31:13.765Z,1.80
2019-06-20T13:38:54.142Z,1.73
2019-06-20T13:41:28.690Z,1.87
2019-06-20T13:46:35.964Z,1.72
2019-06-20T13:49:10.672Z,1.80
2019-06-20T13:51:45.893Z,1.77
2019-06-20T13:54:20.281Z,1.98
2019-06-20T13:56:56.247Z,2.00
2019-06-20T13:59:30.709Z,1.80
2019-06-20T14:04:41.044Z,2.47
2019-06-20T14:07:15.943Z,2.60
2019-06-20T14:09:51.157Z,2.35
2019-06-20T14:12:25.668Z,2.30
2019-06-20T14:14:59.946Z,2.00
2019-06-20T14:17:34.284Z,2.62
2019-06-20T14:20:10.276Z,2.40
2019-06-20T14:22:45.145Z,2.17
2019-06-20T14:25:19.878Z,2.50
2019-06-20T14:27:54.334Z,2.53
2019-06-20T14:30:29.106Z,2.30
2019-06-20T14:33:03.679Z,2.40
2019-06-20T14:35:37.938Z,2.10
2019-06-20T14:38:12.353Z,2.40
2019-06-20T14:40:48.271Z,2.30
2019-06-20T14:43:22.963Z,2.20
2019-06-20T14:45:57.748Z,2.52
2019-06-20T14:51:06.770Z,2.50
2019-06-20T14:58:48.533Z,2.02
2019-06-20T15:01:22.891Z,2.40
2019-06-20T15:03:58.277Z,2.25
2019-06-20T15:06:32.691Z,2.17
2019-06-20T15:09:08.728Z,1.87
2019-06-20T15:11:46.525Z,1.83
2019-06-20T15:14:20.985Z,1.87
2019-06-20T15:16:55.465Z,2.10
2019-06-20T15:19:30.764Z,2.20
2019-06-20T15:24:38.742Z,1.83
2019-06-20T15:27:13.646Z,1.60
2019-06-20T15:29:48.922Z,1.77
2019-06-20T15:32:27.977Z,2.15
2019-06-20T15:37:07.660Z,1.60
2019-06-20T15:39:42.963Z,2.00
2019-06-20T15:42:17.302Z,1.67
2019-06-20T15:44:53.441Z,1.43
2019-06-20T15:50:01.330Z,1.57
2019-06-20T15:52:37.140Z,1.50
2019-06-20T15:55:12.835Z,1.33
2019-06-20T15:57:47.433Z,1.50
2019-06-20T16:00:23.925Z,1.77
2019-06-20T16:03:09.423Z,1.40
2019-06-20T16:05:35.960Z,1.50
2019-06-20T16:08:11.317Z,1.43
2019-06-20T16:10:46.297Z,1.30
2019-06-20T16:13:21.469Z,1.70
2019-06-20T16:15:56.722Z,1.60
2019-06-20T16:21:06.290Z,1.72
2019-06-20T16:23:41.321Z,1.70
2019-06-20T16:26:16.336Z,1.37
2019-06-20T16:28:51.358Z,1.20
2019-06-20T16:32:59.008Z,1.50
2019-06-20T16:35:33.935Z,1.50
2019-06-20T16:38:10.355Z,1.47
2019-06-20T16:40:47.868Z,1.80
2019-06-20T16:43:22.594Z,1.53
2019-06-20T16:45:57.509Z,1.27
2019-06-20T16:48:32.288Z,1.40
2019-06-20T16:51:07.334Z,1.20
2019-06-20T16:53:41.707Z,1.50
2019-06-20T16:58:48.942Z,1.70
2019-06-20T17:01:23.364Z,1.43
2019-06-20T17:03:57.880Z,1.33
2019-06-20T17:06:32.289Z,1.20
2019-06-20T17:09:09.392Z,1.50
2019-06-20T17:11:43.946Z,1.57
2019-06-20T17:14:18.318Z,1.70
2019-06-20T17:16:52.959Z,1.80
2019-06-20T17:19:27.320Z,1.22
2019-06-20T17:22:01.968Z,1.40
2019-06-20T17:24:36.292Z,1.70
2019-06-20T17:27:10.879Z,1.57
2019-06-20T17:29:45.272Z,1.47
2019-06-20T17:32:19.746Z,1.67
2019-06-20T17:37:27.127Z,17.73
2019-06-20T17:40:01.750Z,4.70
2019-06-20T17:45:09.936Z,1.73
2019-06-20T17:47:44.385Z,1.60
2019-06-20T17:50:19.627Z,2.02
2019-06-20T17:52:53.968Z,1.57
2019-06-20T17:55:28.309Z,1.60
2019-06-20T17:58:02.963Z,1.80
2019-06-20T18:00:38.782Z,1.63
2019-06-20T18:05:46.635Z,1.80
2019-06-20T18:08:21.273Z,2.20
2019-06-20T18:10:55.685Z,1.70
2019-06-20T18:13:30.119Z,1.70
2019-06-20T18:16:04.742Z,1.63
2019-06-20T18:21:12.291Z,1.63
2019-06-20T18:23:46.717Z,1.90
2019-06-20T18:28:53.966Z,1.90
2019-06-20T18:31:28.320Z,1.85
2019-06-20T18:34:02.897Z,2.23
2019-06-20T18:36:37.293Z,2.08
2019-06-20T18:39:12.304Z,2.00
2019-06-20T18:41:47.731Z,2.43
2019-06-20T18:46:57.263Z,2.50
2019-06-20T18:49:32.277Z,2.47
2019-06-20T18:52:07.953Z,2.30
2019-06-20T18:54:42.722Z,2.03
2019-06-20T18:57:17.289Z,2.37
2019-06-20T18:59:51.940Z,2.37
2019-06-20T19:02:26.320Z,3.07
2019-06-20T19:05:01.154Z,3.60
2019-06-20T19:07:36.523Z,2.60
2019-06-20T19:10:11.336Z,2.80
2019-06-20T19:12:45.964Z,2.63
2019-06-20T19:15:22.295Z,2.90
2019-06-20T19:17:57.304Z,2.85
2019-06-20T19:20:31.753Z,2.20
2019-06-20T19:25:41.420Z,2.52
2019-06-20T19:28:16.462Z,2.43
2019-06-20T19:30:52.690Z,2.42
2019-06-20T19:33:27.296Z,2.70
2019-06-20T19:36:01.954Z,2.53
2019-06-20T19:38:36.878Z,2.67
2019-06-20T19:41:11.464Z,2.60
2019-06-20T19:43:46.074Z,2.95
2019-06-20T19:46:20.697Z,2.53
2019-06-20T19:48:55.289Z,2.20
2019-06-20T19:51:30.291Z,2.63
2019-06-20T19:54:04.790Z,2.40
2019-06-20T19:59:12.402Z,2.85
2019-06-20T20:01:47.333Z,2.67
2019-06-20T20:04:21.948Z,2.87
2019-06-20T20:06:56.446Z,2.95
2019-06-20T20:09:31.273Z,2.13
2019-06-20T20:12:05.748Z,3.20
2019-06-20T20:14:40.278Z,3.00
2019-06-20T20:17:14.993Z,3.30
2019-06-20T20:19:49.756Z,3.03
2019-06-20T20:22:25.296Z,2.60
2019-06-20T20:25:00.301Z,2.63
2019-06-20T20:27:36.302Z,2.62
2019-06-20T20:30:12.326Z,2.87
2019-06-20T20:32:47.264Z,2.60
2019-06-20T20:35:34.801Z,2.77
2019-06-20T20:38:00.519Z,2.70
2019-06-20T20:40:35.296Z,2.92
2019-06-20T20:43:09.955Z,2.60
2019-06-20T20:45:44.704Z,2.57
2019-06-20T20:48:20.318Z,2.58
2019-06-20T20:50:54.954Z,2.77
2019-06-20T20:53:29.290Z,2.60
2019-06-20T20:56:03.739Z,2.57
2019-06-20T21:03:56.673Z,3.43
2019-06-20T21:06:31.329Z,2.62
2019-06-20T21:09:07.334Z,2.77
2019-06-20T21:11:41.946Z,2.57
2019-06-20T21:16:49.299Z,2.83
2019-06-20T21:19:24.103Z,2.67
2019-06-20T21:21:58.821Z,2.90
2019-06-20T21:27:07.108Z,3.03
2019-06-20T21:29:41.663Z,2.50
2019-06-20T21:32:15.959Z,3.17
2019-06-20T21:34:51.365Z,3.08
2019-06-20T21:37:25.947Z,3.10
2019-06-20T21:40:00.503Z,3.35
2019-06-20T21:47:44.004Z,3.37
2019-06-20T21:50:19.680Z,2.55
2019-06-20T21:55:28.277Z,2.70
2019-06-20T21:58:02.922Z,2.40
2019-06-20T22:00:43.644Z,2.80
2019-06-20T22:03:26.618Z,3.10
2019-06-20T22:08:34.791Z,2.67
2019-06-20T22:11:09.294Z,2.50
2019-06-20T22:13:49.316Z,2.40
2019-06-20T22:16:24.744Z,2.50
2019-06-20T22:18:59.980Z,2.75
2019-06-20T22:21:36.552Z,2.73
2019-06-20T22:24:12.472Z,2.42
2019-06-20T22:26:50.898Z,2.52
2019-06-20T22:29:27.303Z,2.57
2019-06-20T22:32:03.968Z,2.67
2019-06-20T22:34:39.279Z,2.77
2019-06-20T22:37:14.278Z,2.27
2019-06-20T22:39:48.778Z,2.37
2019-06-20T22:44:56.274Z,3.20
2019-06-20T22:47:30.759Z,2.20
2019-06-20T22:50:05.301Z,2.40
2019-06-20T22:52:40.275Z,2.30
2019-06-20T22:55:15.293Z,2.20
2019-06-20T22:57:49.928Z,2.27
2019-06-20T23:00:24.445Z,1.80
2019-06-20T23:02:58.946Z,2.30
2019-06-20T23:05:33.284Z,2.37
2019-06-20T23:08:08.131Z,2.10
2019-06-20T23:10:42.874Z,1.97
2019-06-20T23:15:50.106Z,1.87
2019-06-20T23:18:24.676Z,2.47
2019-06-20T23:23:33.654Z,2.40
2019-06-20T23:26:09.557Z,2.00
2019-06-20T23:28:44.382Z,2.23
2019-06-20T23:31:18.892Z,2.37
2019-06-20T23:33:53.283Z,1.87
2019-06-20T23:36:27.726Z,1.90
2019-06-20T23:41:35.288Z,2.10
2019-06-20T23:44:10.744Z,2.00
2019-06-20T23:46:45.268Z,1.92
2019-06-20T23:49:19.935Z,2.20
2019-06-20T23:51:59.277Z,2.58
2019-06-20T23:54:33.726Z,2.27
2019-06-20T23:59:41.196Z,2.27
